sensor_id;sensor_type;location;lat;lon;timestamp;temperature;humidity
21184;DHT22;18176;49.502;11.754;2023-05-14T00:01:05;9.40;99.90
21184;DHT22;18176;49.502;11.754;2023-05-14T00:05:06;9.30;99.90
21184;DHT22;18176;49.502;11.754;2023-05-14T00:09:07;9.20;99.90
21184;DHT22;18176;49.502;11.754;2023-05-14T00:13:08;9.20;99.90
21184;DHT22;18176;49.502;11.754;2023-05-14T00:17:11;9.10;99.90
21184;DHT22;18176;49.502;11.754;2023-05-14T00:21:11;9.20;99.90
21184;DHT22;18176;49.502;11.754;2023-05-14T00:25:11;9.10;99.90
21184;DHT22;18176;49.502;11.754;2023-05-14T00:29:12;9.00;99.90
21184;DHT22;18176;49.502;11.754;2023-05-14T00:33:15;8.90;99.90
21184;DHT22;18176;49.502;11.754;2023-05-14T00:37:15;8.70;99.90
21184;DHT22;18176;49.502;11.754;2023-05-14T00:41:16;8.50;99.90
21184;DHT22;18176;49.502;11.754;2023-05-14T00:45:17;8.40;99.90
21184;DHT22;18176;49.502;11.754;2023-05-14T00:49:20;8.40;99.90
21184;DHT22;18176;49.502;11.754;2023-05-14T00:53:21;8.30;99.90
21184;DHT22;18176;49.502;11.754;2023-05-14T00:57:21;8.20;99.90
21184;DHT22;18176;49.502;11.754;2023-05-14T01:01:22;8.10;99.90
21184;DHT22;18176;49.502;11.754;2023-05-14T01:05:31;7.90;99.90
21184;DHT22;18176;49.502;11.754;2023-05-14T01:09:43;7.80;99.90
21184;DHT22;18176;49.502;11.754;2023-05-14T01:13:54;7.70;99.90
21184;DHT22;18176;49.502;11.754;2023-05-14T01:18:04;7.50;99.90
21184;DHT22;18176;49.502;11.754;2023-05-14T01:22:11;7.40;99.90
21184;DHT22;18176;49.502;11.754;2023-05-14T01:26:12;7.30;99.90
21184;DHT22;18176;49.502;11.754;2023-05-14T01:30:16;7.30;99.90
21184;DHT22;18176;49.502;11.754;2023-05-14T01:34:22;7.10;99.90
21184;DHT22;18176;49.502;11.754;2023-05-14T01:38:28;7.10;99.90
21184;DHT22;18176;49.502;11.754;2023-05-14T01:42:30;7.00;99.90
21184;DHT22;18176;49.502;11.754;2023-05-14T01:46:31;6.90;99.90
21184;DHT22;18176;49.502;11.754;2023-05-14T01:50:32;6.90;99.90
21184;DHT22;18176;49.502;11.754;2023-05-14T01:54:35;6.80;99.90
21184;DHT22;18176;49.502;11.754;2023-05-14T01:58:36;6.80;99.90
21184;DHT22;18176;49.502;11.754;2023-05-14T02:02:36;6.70;99.90
21184;DHT22;18176;49.502;11.754;2023-05-14T02:06:38;6.70;99.90
21184;DHT22;18176;49.502;11.754;2023-05-14T02:10:41;6.60;99.90
21184;DHT22;18176;49.502;11.754;2023-05-14T02:14:41;6.60;99.90
21184;DHT22;18176;49.502;11.754;2023-05-14T02:18:42;6.50;99.90
21184;DHT22;18176;49.502;11.754;2023-05-14T02:22:42;6.50;99.90
21184;DHT22;18176;49.502;11.754;2023-05-14T02:26:45;6.50;99.90
21184;DHT22;18176;49.502;11.754;2023-05-14T02:30:46;6.40;99.90
21184;DHT22;18176;49.502;11.754;2023-05-14T02:34:46;6.40;99.90
21184;DHT22;18176;49.502;11.754;2023-05-14T02:38:46;6.40;99.90
21184;DHT22;18176;49.502;11.754;2023-05-14T02:42:49;6.80;99.90
21184;DHT22;18176;49.502;11.754;2023-05-14T02:46:49;7.00;99.90
21184;DHT22;18176;49.502;11.754;2023-05-14T02:50:50;7.00;99.90
21184;DHT22;18176;49.502;11.754;2023-05-14T02:54:51;7.10;99.90
21184;DHT22;18176;49.502;11.754;2023-05-14T02:58:53;7.20;99.90
21184;DHT22;18176;49.502;11.754;2023-05-14T03:02:54;7.10;99.90
21184;DHT22;18176;49.502;11.754;2023-05-14T03:06:55;6.90;99.90
21184;DHT22;18176;49.502;11.754;2023-05-14T03:10:55;6.60;99.90
21184;DHT22;18176;49.502;11.754;2023-05-14T03:14:58;6.40;99.90
21184;DHT22;18176;49.502;11.754;2023-05-14T03:18:59;6.40;99.90
21184;DHT22;18176;49.502;11.754;2023-05-14T03:23:00;6.40;99.90
21184;DHT22;18176;49.502;11.754;2023-05-14T03:27:00;6.40;99.90
21184;DHT22;18176;49.502;11.754;2023-05-14T03:31:03;6.30;99.90
21184;DHT22;18176;49.502;11.754;2023-05-14T03:35:07;6.10;99.90
21184;DHT22;18176;49.502;11.754;2023-05-14T03:39:07;6.00;99.90
21184;DHT22;18176;49.502;11.754;2023-05-14T03:43:11;5.90;99.90
21184;DHT22;18176;49.502;11.754;2023-05-14T03:47:15;5.90;99.90
21184;DHT22;18176;49.502;11.754;2023-05-14T03:51:15;6.00;99.90
21184;DHT22;18176;49.502;11.754;2023-05-14T03:55:16;6.00;99.90
21184;DHT22;18176;49.502;11.754;2023-05-14T03:59:16;5.90;99.90
21184;DHT22;18176;49.502;11.754;2023-05-14T04:03:19;5.80;99.90
21184;DHT22;18176;49.502;11.754;2023-05-14T04:07:20;5.90;99.90
21184;DHT22;18176;49.502;11.754;2023-05-14T04:11:22;5.90;99.90
21184;DHT22;18176;49.502;11.754;2023-05-14T04:15:23;5.90;99.90
21184;DHT22;18176;49.502;11.754;2023-05-14T04:19:26;6.00;99.90
21184;DHT22;18176;49.502;11.754;2023-05-14T04:23:26;6.00;99.90
21184;DHT22;18176;49.502;11.754;2023-05-14T04:27:27;6.10;99.90
21184;DHT22;18176;49.502;11.754;2023-05-14T04:31:28;6.20;99.90
21184;DHT22;18176;49.502;11.754;2023-05-14T04:35:32;6.20;99.90
21184;DHT22;18176;49.502;11.754;2023-05-14T04:39:32;6.30;99.90
21184;DHT22;18176;49.502;11.754;2023-05-14T04:43:32;6.30;99.90
21184;DHT22;18176;49.502;11.754;2023-05-14T04:47:33;6.40;99.90
21184;DHT22;18176;49.502;11.754;2023-05-14T04:51:36;6.50;99.90
21184;DHT22;18176;49.502;11.754;2023-05-14T04:55:36;6.50;99.90
21184;DHT22;18176;49.502;11.754;2023-05-14T04:59:36;6.60;99.90
21184;DHT22;18176;49.502;11.754;2023-05-14T05:03:37;6.70;99.90
21184;DHT22;18176;49.502;11.754;2023-05-14T05:07:40;6.70;99.90
21184;DHT22;18176;49.502;11.754;2023-05-14T05:11:41;6.90;99.90
21184;DHT22;18176;49.502;11.754;2023-05-14T05:15:41;7.00;99.90
21184;DHT22;18176;49.502;11.754;2023-05-14T05:19:42;7.20;99.90
21184;DHT22;18176;49.502;11.754;2023-05-14T05:23:44;7.40;99.90
21184;DHT22;18176;49.502;11.754;2023-05-14T05:27:45;7.90;99.90
21184;DHT22;18176;49.502;11.754;2023-05-14T05:31:45;8.40;99.90
21184;DHT22;18176;49.502;11.754;2023-05-14T05:35:45;8.80;99.90
21184;DHT22;18176;49.502;11.754;2023-05-14T05:39:48;9.20;99.90
21184;DHT22;18176;49.502;11.754;2023-05-14T05:43:50;9.40;99.90
21184;DHT22;18176;49.502;11.754;2023-05-14T05:47:51;9.60;99.90
21184;DHT22;18176;49.502;11.754;2023-05-14T05:51:51;9.80;99.90
21184;DHT22;18176;49.502;11.754;2023-05-14T05:55:54;10.00;99.90
21184;DHT22;18176;49.502;11.754;2023-05-14T05:59:54;10.20;99.90
21184;DHT22;18176;49.502;11.754;2023-05-14T06:03:55;10.10;99.90
21184;DHT22;18176;49.502;11.754;2023-05-14T06:07:55;10.20;99.90
21184;DHT22;18176;49.502;11.754;2023-05-14T06:11:58;10.30;99.90
21184;DHT22;18176;49.502;11.754;2023-05-14T06:15:58;10.40;99.90
21184;DHT22;18176;49.502;11.754;2023-05-14T06:19:59;10.50;99.90
21184;DHT22;18176;49.502;11.754;2023-05-14T06:23:59;10.60;99.90
21184;DHT22;18176;49.502;11.754;2023-05-14T06:28:02;10.80;99.90
21184;DHT22;18176;49.502;11.754;2023-05-14T06:32:03;10.90;99.90
21184;DHT22;18176;49.502;11.754;2023-05-14T06:36:05;11.10;99.90
21184;DHT22;18176;49.502;11.754;2023-05-14T06:40:07;11.30;99.90
21184;DHT22;18176;49.502;11.754;2023-05-14T06:44:11;11.40;99.90
21184;DHT22;18176;49.502;11.754;2023-05-14T06:48:11;11.70;99.90
21184;DHT22;18176;49.502;11.754;2023-05-14T06:52:12;12.00;99.90
21184;DHT22;18176;49.502;11.754;2023-05-14T06:56:12;12.40;99.90
21184;DHT22;18176;49.502;11.754;2023-05-14T07:00:17;12.80;99.90
21184;DHT22;18176;49.502;11.754;2023-05-14T07:04:18;13.40;99.90
21184;DHT22;18176;49.502;11.754;2023-05-14T07:08:19;13.90;99.90
21184;DHT22;18176;49.502;11.754;2023-05-14T07:12:19;14.10;99.90
21184;DHT22;18176;49.502;11.754;2023-05-14T07:16:22;14.30;99.90
21184;DHT22;18176;49.502;11.754;2023-05-14T07:20:23;14.70;99.90
21184;DHT22;18176;49.502;11.754;2023-05-14T07:24:23;14.70;99.90
21184;DHT22;18176;49.502;11.754;2023-05-14T07:28:23;15.10;99.90
21184;DHT22;18176;49.502;11.754;2023-05-14T07:32:26;15.10;99.90
21184;DHT22;18176;49.502;11.754;2023-05-14T07:36:27;15.00;99.90
21184;DHT22;18176;49.502;11.754;2023-05-14T07:40:28;15.40;99.90
21184;DHT22;18176;49.502;11.754;2023-05-14T07:44:28;15.90;99.90
21184;DHT22;18176;49.502;11.754;2023-05-14T07:48:31;16.00;99.90
21184;DHT22;18176;49.502;11.754;2023-05-14T07:52:31;16.20;99.90
21184;DHT22;18176;49.502;11.754;2023-05-14T07:56:31;16.40;99.90
21184;DHT22;18176;49.502;11.754;2023-05-14T08:00:32;16.40;99.90
21184;DHT22;18176;49.502;11.754;2023-05-14T08:04:35;16.00;99.90
21184;DHT22;18176;49.502;11.754;2023-05-14T08:08:35;15.80;99.90
21184;DHT22;18176;49.502;11.754;2023-05-14T08:12:36;15.70;99.90
21184;DHT22;18176;49.502;11.754;2023-05-14T08:16:36;15.60;99.90
21184;DHT22;18176;49.502;11.754;2023-05-14T08:20:39;15.60;99.90
21184;DHT22;18176;49.502;11.754;2023-05-14T08:24:40;15.80;99.90
21184;DHT22;18176;49.502;11.754;2023-05-14T08:28:40;16.00;99.90
21184;DHT22;18176;49.502;11.754;2023-05-14T08:32:41;15.90;99.90
21184;DHT22;18176;49.502;11.754;2023-05-14T08:36:44;16.00;99.90
21184;DHT22;18176;49.502;11.754;2023-05-14T08:40:47;16.00;99.90
21184;DHT22;18176;49.502;11.754;2023-05-14T08:44:52;16.20;99.90
21184;DHT22;18176;49.502;11.754;2023-05-14T08:49:07;16.20;99.90
21184;DHT22;18176;49.502;11.754;2023-05-14T08:53:16;16.00;99.90
21184;DHT22;18176;49.502;11.754;2023-05-14T08:57:19;15.90;99.90
21184;DHT22;18176;49.502;11.754;2023-05-14T09:01:21;16.60;99.90
21184;DHT22;18176;49.502;11.754;2023-05-14T09:05:22;17.70;99.90
21184;DHT22;18176;49.502;11.754;2023-05-14T09:09:28;18.80;99.90
21184;DHT22;18176;49.502;11.754;2023-05-14T09:13:28;20.00;99.90
21184;DHT22;18176;49.502;11.754;2023-05-14T09:17:29;20.90;99.90
21184;DHT22;18176;49.502;11.754;2023-05-14T09:21:29;22.00;99.90
21184;DHT22;18176;49.502;11.754;2023-05-14T09:25:32;21.90;99.90
21184;DHT22;18176;49.502;11.754;2023-05-14T09:29:33;21.10;99.90
21184;DHT22;18176;49.502;11.754;2023-05-14T09:33:33;22.10;99.90
21184;DHT22;18176;49.502;11.754;2023-05-14T09:37:35;21.90;99.90
21184;DHT22;18176;49.502;11.754;2023-05-14T09:41:38;20.70;99.90
21184;DHT22;18176;49.502;11.754;2023-05-14T09:45:39;19.80;99.90
21184;DHT22;18176;49.502;11.754;2023-05-14T09:49:40;19.70;99.90
21184;DHT22;18176;49.502;11.754;2023-05-14T09:53:42;19.40;99.90
21184;DHT22;18176;49.502;11.754;2023-05-14T09:57:45;19.70;99.90
21184;DHT22;18176;49.502;11.754;2023-05-14T10:01:46;20.10;99.90
21184;DHT22;18176;49.502;11.754;2023-05-14T10:05:48;20.30;99.90
21184;DHT22;18176;49.502;11.754;2023-05-14T10:09:56;20.00;99.90
21184;DHT22;18176;49.502;11.754;2023-05-14T10:14:04;19.40;99.90
21184;DHT22;18176;49.502;11.754;2023-05-14T10:18:09;19.40;99.90
21184;DHT22;18176;49.502;11.754;2023-05-14T10:22:14;19.40;99.90
21184;DHT22;18176;49.502;11.754;2023-05-14T10:26:17;19.20;99.90
21184;DHT22;18176;49.502;11.754;2023-05-14T10:30:22;19.10;99.90
21184;DHT22;18176;49.502;11.754;2023-05-14T10:34:30;18.70;99.90
21184;DHT22;18176;49.502;11.754;2023-05-14T10:38:35;18.10;99.90
21184;DHT22;18176;49.502;11.754;2023-05-14T10:42:38;18.00;99.90
21184;DHT22;18176;49.502;11.754;2023-05-14T10:46:42;18.40;99.90
21184;DHT22;18176;49.502;11.754;2023-05-14T10:50:43;19.20;99.90
21184;DHT22;18176;49.502;11.754;2023-05-14T10:54:51;19.60;99.90
21184;DHT22;18176;49.502;11.754;2023-05-14T10:58:57;19.30;99.90
21184;DHT22;18176;49.502;11.754;2023-05-14T11:03:03;19.10;99.90
21184;DHT22;18176;49.502;11.754;2023-05-14T11:07:07;19.20;99.90
21184;DHT22;18176;49.502;11.754;2023-05-14T11:11:09;19.60;99.90
21184;DHT22;18176;49.502;11.754;2023-05-14T11:15:12;20.10;99.90
21184;DHT22;18176;49.502;11.754;2023-05-14T11:19:20;20.20;99.90
21184;DHT22;18176;49.502;11.754;2023-05-14T11:23:22;20.20;99.90
21184;DHT22;18176;49.502;11.754;2023-05-14T11:27:23;19.80;99.90
21184;DHT22;18176;49.502;11.754;2023-05-14T11:31:24;19.30;99.90
21184;DHT22;18176;49.502;11.754;2023-05-14T11:35:28;18.90;99.90
21184;DHT22;18176;49.502;11.754;2023-05-14T11:39:29;19.10;99.90
21184;DHT22;18176;49.502;11.754;2023-05-14T11:43:35;18.90;99.90
21184;DHT22;18176;49.502;11.754;2023-05-14T11:47:35;18.40;99.90
21184;DHT22;18176;49.502;11.754;2023-05-14T11:51:38;17.90;99.90
21184;DHT22;18176;49.502;11.754;2023-05-14T11:55:39;17.40;99.90
21184;DHT22;18176;49.502;11.754;2023-05-14T11:59:39;17.30;99.90
21184;DHT22;18176;49.502;11.754;2023-05-14T12:03:40;17.30;99.90
21184;DHT22;18176;49.502;11.754;2023-05-14T12:07:46;17.50;99.90
21184;DHT22;18176;49.502;11.754;2023-05-14T12:11:47;17.70;99.90
21184;DHT22;18176;49.502;11.754;2023-05-14T12:15:54;17.80;99.90
21184;DHT22;18176;49.502;11.754;2023-05-14T12:19:56;17.90;99.90
21184;DHT22;18176;49.502;11.754;2023-05-14T12:23:59;18.40;99.90
21184;DHT22;18176;49.502;11.754;2023-05-14T12:28:00;18.80;99.90
21184;DHT22;18176;49.502;11.754;2023-05-14T12:32:01;19.10;99.90
21184;DHT22;18176;49.502;11.754;2023-05-14T12:36:05;20.50;99.90
21184;DHT22;18176;49.502;11.754;2023-05-14T12:40:20;22.80;99.90
21184;DHT22;18176;49.502;11.754;2023-05-14T12:44:21;23.30;99.90
21184;DHT22;18176;49.502;11.754;2023-05-14T12:48:22;22.70;99.90
21184;DHT22;18176;49.502;11.754;2023-05-14T12:52:23;22.90;99.90
21184;DHT22;18176;49.502;11.754;2023-05-14T12:56:37;23.20;99.90
21184;DHT22;18176;49.502;11.754;2023-05-14T13:00:38;23.20;99.90
21184;DHT22;18176;49.502;11.754;2023-05-14T13:04:38;23.60;99.90
21184;DHT22;18176;49.502;11.754;2023-05-14T13:08:39;24.30;97.40
21184;DHT22;18176;49.502;11.754;2023-05-14T13:12:41;24.00;97.40
21184;DHT22;18176;49.502;11.754;2023-05-14T13:16:42;25.00;97.10
21184;DHT22;18176;49.502;11.754;2023-05-14T13:20:45;24.50;94.70
21184;DHT22;18176;49.502;11.754;2023-05-14T13:24:46;24.40;95.40
21184;DHT22;18176;49.502;11.754;2023-05-14T13:28:48;23.40;96.50
21184;DHT22;18176;49.502;11.754;2023-05-14T13:32:49;22.30;98.10
21184;DHT22;18176;49.502;11.754;2023-05-14T13:36:50;21.30;99.90
21184;DHT22;18176;49.502;11.754;2023-05-14T13:40:50;20.20;99.90
21184;DHT22;18176;49.502;11.754;2023-05-14T13:44:57;19.40;99.90
21184;DHT22;18176;49.502;11.754;2023-05-14T13:48:58;18.80;99.90
21184;DHT22;18176;49.502;11.754;2023-05-14T13:52:58;18.30;99.90
21184;DHT22;18176;49.502;11.754;2023-05-14T13:56:58;18.30;99.90
21184;DHT22;18176;49.502;11.754;2023-05-14T14:01:01;18.40;99.90
21184;DHT22;18176;49.502;11.754;2023-05-14T14:05:02;18.60;99.90
21184;DHT22;18176;49.502;11.754;2023-05-14T14:09:02;19.00;99.90
21184;DHT22;18176;49.502;11.754;2023-05-14T14:13:02;19.00;99.90
21184;DHT22;18176;49.502;11.754;2023-05-14T14:17:06;19.00;99.90
21184;DHT22;18176;49.502;11.754;2023-05-14T14:21:06;19.00;99.90
21184;DHT22;18176;49.502;11.754;2023-05-14T14:25:07;19.10;99.90
21184;DHT22;18176;49.502;11.754;2023-05-14T14:29:08;19.20;99.90
21184;DHT22;18176;49.502;11.754;2023-05-14T14:33:11;19.30;99.90
21184;DHT22;18176;49.502;11.754;2023-05-14T14:37:11;19.20;99.90
21184;DHT22;18176;49.502;11.754;2023-05-14T14:41:12;19.40;99.90
21184;DHT22;18176;49.502;11.754;2023-05-14T14:45:12;19.60;99.90
21184;DHT22;18176;49.502;11.754;2023-05-14T14:49:15;19.40;99.90
21184;DHT22;18176;49.502;11.754;2023-05-14T14:53:15;19.10;99.90
21184;DHT22;18176;49.502;11.754;2023-05-14T14:57:16;19.00;99.90
21184;DHT22;18176;49.502;11.754;2023-05-14T15:01:16;19.10;99.90
21184;DHT22;18176;49.502;11.754;2023-05-14T15:05:20;19.50;99.90
21184;DHT22;18176;49.502;11.754;2023-05-14T15:09:20;19.40;99.90
21184;DHT22;18176;49.502;11.754;2023-05-14T15:13:21;19.50;99.90
21184;DHT22;18176;49.502;11.754;2023-05-14T15:17:23;19.60;99.90
21184;DHT22;18176;49.502;11.754;2023-05-14T15:21:26;19.80;99.90
21184;DHT22;18176;49.502;11.754;2023-05-14T15:25:26;19.80;99.90
21184;DHT22;18176;49.502;11.754;2023-05-14T15:29:27;19.80;99.90
21184;DHT22;18176;49.502;11.754;2023-05-14T15:33:27;19.70;99.90
21184;DHT22;18176;49.502;11.754;2023-05-14T15:37:35;19.10;99.90
21184;DHT22;18176;49.502;11.754;2023-05-14T15:41:37;18.70;99.90
21184;DHT22;18176;49.502;11.754;2023-05-14T15:45:37;18.70;99.90
21184;DHT22;18176;49.502;11.754;2023-05-14T15:49:37;18.80;99.90
21184;DHT22;18176;49.502;11.754;2023-05-14T15:53:40;18.70;99.90
21184;DHT22;18176;49.502;11.754;2023-05-14T15:57:40;18.70;99.90
21184;DHT22;18176;49.502;11.754;2023-05-14T16:01:44;18.70;99.90
21184;DHT22;18176;49.502;11.754;2023-05-14T16:05:46;18.90;99.90
21184;DHT22;18176;49.502;11.754;2023-05-14T16:09:49;19.50;99.90
21184;DHT22;18176;49.502;11.754;2023-05-14T16:13:49;20.10;99.90
21184;DHT22;18176;49.502;11.754;2023-05-14T16:17:50;20.40;99.90
21184;DHT22;18176;49.502;11.754;2023-05-14T16:21:50;20.50;99.90
21184;DHT22;18176;49.502;11.754;2023-05-14T16:25:53;20.30;99.90
21184;DHT22;18176;49.502;11.754;2023-05-14T16:29:53;19.70;99.90
21184;DHT22;18176;49.502;11.754;2023-05-14T16:33:54;18.90;99.90
21184;DHT22;18176;49.502;11.754;2023-05-14T16:37:54;18.20;99.90
21184;DHT22;18176;49.502;11.754;2023-05-14T16:41:57;17.60;99.90
21184;DHT22;18176;49.502;11.754;2023-05-14T16:45:58;17.10;99.90
21184;DHT22;18176;49.502;11.754;2023-05-14T16:49:58;16.80;99.90
21184;DHT22;18176;49.502;11.754;2023-05-14T16:53:58;16.70;99.90
21184;DHT22;18176;49.502;11.754;2023-05-14T16:58:01;16.60;99.90
21184;DHT22;18176;49.502;11.754;2023-05-14T17:02:02;16.70;99.90
21184;DHT22;18176;49.502;11.754;2023-05-14T17:06:02;16.60;99.90
21184;DHT22;18176;49.502;11.754;2023-05-14T17:10:04;16.70;99.90
21184;DHT22;18176;49.502;11.754;2023-05-14T17:14:08;16.70;99.90
21184;DHT22;18176;49.502;11.754;2023-05-14T17:18:08;16.70;99.90
21184;DHT22;18176;49.502;11.754;2023-05-14T17:22:09;16.70;99.90
21184;DHT22;18176;49.502;11.754;2023-05-14T17:26:10;16.30;99.90
21184;DHT22;18176;49.502;11.754;2023-05-14T17:30:13;16.10;99.90
21184;DHT22;18176;49.502;11.754;2023-05-14T17:34:14;15.90;99.90
21184;DHT22;18176;49.502;11.754;2023-05-14T17:38:14;15.60;99.90
21184;DHT22;18176;49.502;11.754;2023-05-14T17:42:14;15.40;99.90
21184;DHT22;18176;49.502;11.754;2023-05-14T17:46:18;15.30;99.90
21184;DHT22;18176;49.502;11.754;2023-05-14T17:50:18;15.10;99.90
21184;DHT22;18176;49.502;11.754;2023-05-14T17:54:19;15.00;99.90
21184;DHT22;18176;49.502;11.754;2023-05-14T17:58:19;15.00;99.90
21184;DHT22;18176;49.502;11.754;2023-05-14T18:02:22;14.80;99.90
21184;DHT22;18176;49.502;11.754;2023-05-14T18:06:22;14.70;99.90
21184;DHT22;18176;49.502;11.754;2023-05-14T18:10:23;14.60;99.90
21184;DHT22;18176;49.502;11.754;2023-05-14T18:14:25;14.40;99.90
21184;DHT22;18176;49.502;11.754;2023-05-14T18:18:29;14.20;99.90
21184;DHT22;18176;49.502;11.754;2023-05-14T18:22:30;14.10;99.90
21184;DHT22;18176;49.502;11.754;2023-05-14T18:26:30;14.00;99.90
21184;DHT22;18176;49.502;11.754;2023-05-14T18:30:30;13.90;99.90
21184;DHT22;18176;49.502;11.754;2023-05-14T18:34:34;13.80;99.90
21184;DHT22;18176;49.502;11.754;2023-05-14T18:38:34;13.80;99.90
21184;DHT22;18176;49.502;11.754;2023-05-14T18:42:34;13.80;99.90
21184;DHT22;18176;49.502;11.754;2023-05-14T18:46:35;13.70;99.90
21184;DHT22;18176;49.502;11.754;2023-05-14T18:50:39;13.60;99.90
21184;DHT22;18176;49.502;11.754;2023-05-14T18:54:39;13.60;99.90
21184;DHT22;18176;49.502;11.754;2023-05-14T18:58:40;13.50;99.90
21184;DHT22;18176;49.502;11.754;2023-05-14T19:02:40;13.50;99.90
21184;DHT22;18176;49.502;11.754;2023-05-14T19:06:43;13.40;99.90
21184;DHT22;18176;49.502;11.754;2023-05-14T19:10:44;13.40;99.90
21184;DHT22;18176;49.502;11.754;2023-05-14T19:14:44;13.20;99.90
21184;DHT22;18176;49.502;11.754;2023-05-14T19:18:45;13.00;99.90
21184;DHT22;18176;49.502;11.754;2023-05-14T19:22:48;12.90;99.90
21184;DHT22;18176;49.502;11.754;2023-05-14T19:26:49;12.60;99.90
21184;DHT22;18176;49.502;11.754;2023-05-14T19:30:50;12.40;99.90
21184;DHT22;18176;49.502;11.754;2023-05-14T19:34:50;12.10;99.90
21184;DHT22;18176;49.502;11.754;2023-05-14T19:38:53;11.90;99.90
21184;DHT22;18176;49.502;11.754;2023-05-14T19:42:56;11.70;99.90
21184;DHT22;18176;49.502;11.754;2023-05-14T19:46:57;11.50;99.90
21184;DHT22;18176;49.502;11.754;2023-05-14T19:50:57;11.40;99.90
21184;DHT22;18176;49.502;11.754;2023-05-14T19:55:00;11.30;99.90
21184;DHT22;18176;49.502;11.754;2023-05-14T19:59:01;11.30;99.90
21184;DHT22;18176;49.502;11.754;2023-05-14T20:03:02;11.30;99.90
21184;DHT22;18176;49.502;11.754;2023-05-14T20:07:03;11.20;99.90
21184;DHT22;18176;49.502;11.754;2023-05-14T20:11:07;11.20;99.90
21184;DHT22;18176;49.502;11.754;2023-05-14T20:15:08;11.20;99.90
21184;DHT22;18176;49.502;11.754;2023-05-14T20:19:09;11.10;99.90
21184;DHT22;18176;49.502;11.754;2023-05-14T20:23:09;11.10;99.90
21184;DHT22;18176;49.502;11.754;2023-05-14T20:27:12;11.20;99.90
21184;DHT22;18176;49.502;11.754;2023-05-14T20:31:13;11.30;99.90
21184;DHT22;18176;49.502;11.754;2023-05-14T20:35:13;11.40;99.90
21184;DHT22;18176;49.502;11.754;2023-05-14T20:39:14;11.40;99.90
21184;DHT22;18176;49.502;11.754;2023-05-14T20:43:18;11.40;99.90
21184;DHT22;18176;49.502;11.754;2023-05-14T20:47:19;11.50;99.90
21184;DHT22;18176;49.502;11.754;2023-05-14T20:51:20;11.50;99.90
21184;DHT22;18176;49.502;11.754;2023-05-14T20:55:20;11.50;99.90
21184;DHT22;18176;49.502;11.754;2023-05-14T20:59:23;11.50;99.90
21184;DHT22;18176;49.502;11.754;2023-05-14T21:03:24;11.50;99.90
21184;DHT22;18176;49.502;11.754;2023-05-14T21:07:24;11.50;99.90
21184;DHT22;18176;49.502;11.754;2023-05-14T21:11:25;11.50;99.90
21184;DHT22;18176;49.502;11.754;2023-05-14T21:15:28;11.50;99.90
21184;DHT22;18176;49.502;11.754;2023-05-14T21:19:28;11.50;99.90
21184;DHT22;18176;49.502;11.754;2023-05-14T21:23:29;11.40;99.90
21184;DHT22;18176;49.502;11.754;2023-05-14T21:27:29;11.40;99.90
21184;DHT22;18176;49.502;11.754;2023-05-14T21:31:32;11.40;99.90
21184;DHT22;18176;49.502;11.754;2023-05-14T21:35:32;11.40;99.90
21184;DHT22;18176;49.502;11.754;2023-05-14T21:39:33;11.40;99.90
21184;DHT22;18176;49.502;11.754;2023-05-14T21:43:33;11.40;99.90
21184;DHT22;18176;49.502;11.754;2023-05-14T21:47:39;11.40;99.90
21184;DHT22;18176;49.502;11.754;2023-05-14T21:51:39;11.40;99.90
21184;DHT22;18176;49.502;11.754;2023-05-14T21:55:40;11.40;99.90
21184;DHT22;18176;49.502;11.754;2023-05-14T21:59:41;11.40;99.90
21184;DHT22;18176;49.502;11.754;2023-05-14T22:03:43;11.40;99.90
21184;DHT22;18176;49.502;11.754;2023-05-14T22:07:44;11.40;99.90
21184;DHT22;18176;49.502;11.754;2023-05-14T22:11:44;11.30;99.90
21184;DHT22;18176;49.502;11.754;2023-05-14T22:15:44;11.30;99.90
21184;DHT22;18176;49.502;11.754;2023-05-14T22:19:51;11.30;99.90
21184;DHT22;18176;49.502;11.754;2023-05-14T22:23:52;11.30;99.90
21184;DHT22;18176;49.502;11.754;2023-05-14T22:27:52;11.30;99.90
21184;DHT22;18176;49.502;11.754;2023-05-14T22:31:52;11.30;99.90
21184;DHT22;18176;49.502;11.754;2023-05-14T22:35:55;11.30;99.90
21184;DHT22;18176;49.502;11.754;2023-05-14T22:39:55;11.30;99.90
21184;DHT22;18176;49.502;11.754;2023-05-14T22:43:55;11.20;99.90
21184;DHT22;18176;49.502;11.754;2023-05-14T22:47:56;11.20;99.90
21184;DHT22;18176;49.502;11.754;2023-05-14T22:52:01;11.20;99.90
21184;DHT22;18176;49.502;11.754;2023-05-14T22:56:01;11.20;99.90
21184;DHT22;18176;49.502;11.754;2023-05-14T23:00:03;11.20;99.90
21184;DHT22;18176;49.502;11.754;2023-05-14T23:04:05;11.20;99.90
21184;DHT22;18176;49.502;11.754;2023-05-14T23:08:08;11.10;99.90
21184;DHT22;18176;49.502;11.754;2023-05-14T23:12:09;11.10;99.90
21184;DHT22;18176;49.502;11.754;2023-05-14T23:16:09;11.10;99.90
21184;DHT22;18176;49.502;11.754;2023-05-14T23:20:10;11.10;99.90
21184;DHT22;18176;49.502;11.754;2023-05-14T23:24:14;11.00;99.90
21184;DHT22;18176;49.502;11.754;2023-05-14T23:28:14;11.00;99.90
21184;DHT22;18176;49.502;11.754;2023-05-14T23:32:14;11.00;99.90
21184;DHT22;18176;49.502;11.754;2023-05-14T23:36:15;10.90;99.90
21184;DHT22;18176;49.502;11.754;2023-05-14T23:40:18;10.90;99.90
21184;DHT22;18176;49.502;11.754;2023-05-14T23:44:18;10.90;99.90
21184;DHT22;18176;49.502;11.754;2023-05-14T23:48:18;10.80;99.90
21184;DHT22;18176;49.502;11.754;2023-05-14T23:52:19;10.70;99.90
21184;DHT22;18176;49.502;11.754;2023-05-14T23:56:21;10.70;99.90
